Station Historical Data
Daily Summary for April 14, 2017 Units:  Metric    English   Both
« Previous Day
Next Day »
Daily Weekly Monthly Yearly Custom
  High: Low: Average:
Temperature: 27.7 °C 15.8 °C 20.6 °C
Dew Point: 15.4 °C 10.7 °C 13 °C
Humidity: 86% 36% 64%
Wind Speed: 1.6km/h 0km/h 0km/h
Wind Gust: 8km/h - -
Wind- - NNW
Pressure: 1026.6 hPa 1022.9 hPa -
Precipitation: 0 mm    
Historical Graphs
 
 
Tabular Data for April 14, 2017
Time Temperature Dew Point Pressure Wind Wind Speed Wind Gust Humidity Rainfall Rate (Hourly) Conditions
00:00 17.9 °C 12.8 °C 1023.6 hPa Calm     72% 0 mm CLR
00:15 17.7 °C 12.8 °C 1023.6 hPa Calm     73% 0 mm CLR
00:30 17.5 °C 13 °C 1023.6 hPa Calm     75% 0 mm CLR
00:45 17.2 °C 12.9 °C 1023.6 hPa Calm     76% 0 mm CLR
01:00 17.1 °C 13.1 °C 1023.6 hPa Calm     77% 0 mm CLR
01:15 17.3 °C 13.4 °C 1023.6 hPa Calm     78% 0 mm CLR
01:30 17.4 °C 13.4 °C 1023.6 hPa Calm     77% 0 mm CLR
01:45 17.5 °C 13.4 °C 1023.2 hPa Calm     77% 0 mm CLR
02:00 17.3 °C 13.2 °C 1023.2 hPa Calm     77% 0 mm CLR
02:15 16.9 °C 13.1 °C 1023.2 hPa Calm     78% 0 mm CLR
02:30 16.7 °C 13 °C 1023.2 hPa Calm     79% 0 mm CLR
02:45 16.6 °C 13.1 °C 1023.2 hPa Calm     80% 0 mm CLR
03:00 16.4 °C 13.2 °C 1023.2 hPa Calm     81% 0 mm CLR
03:15 16.4 °C 13.1 °C 1023.2 hPa Calm     81% 0 mm CLR
03:30 16.4 °C 13.3 °C 1023.2 hPa Calm     82% 0 mm CLR
03:45 16.3 °C 13 °C 1023.2 hPa Calm     81% 0 mm CLR
04:00 16.3 °C 13 °C 1023.2 hPa Calm     81% 0 mm CLR
04:15 16.3 °C 13 °C 1023.2 hPa Calm     81% 0 mm CLR
04:30 16.3 °C 13 °C 1023.2 hPa Calm     81% 0 mm CLR
04:45 16.3 °C 13 °C 1023.2 hPa Calm     81% 0 mm CLR
05:00 16.3 °C 13 °C 1023.6 hPa Calm     81% 0 mm CLR
05:15 16.3 °C 13 °C 1023.6 hPa Calm     81% 0 mm CLR
05:30 16.3 °C 13 °C 1023.6 hPa Calm     81% 0 mm CLR
05:45 16.3 °C 13 °C 1023.6 hPa Calm     81% 0 mm CLR
06:00 16.3 °C 13 °C 1023.9 hPa Calm     81% 0 mm CLR
06:15 16.3 °C 13 °C 1023.9 hPa Calm     81% 0 mm CLR
06:30 16.3 °C 13 °C 1024.3 hPa Calm     81% 0 mm CLR
06:45 16.3 °C 13 °C 1024.3 hPa Calm     81% 0 mm CLR
07:00 16.3 °C 13 °C 1024.3 hPa Calm     81% 0 mm CLR
07:15 16.3 °C 13 °C 1024.6 hPa Calm     81% 0 mm CLR
07:30 16.3 °C 13 °C 1024.9 hPa Calm     81% 0 mm CLR
07:45 16.3 °C 13 °C 1024.9 hPa Calm     81% 0 mm CLR
08:00 16.3 °C 13 °C 1025.3 hPa Calm     81% 0 mm CLR
08:15 16.3 °C 13 °C 1025.6 hPa Calm     81% 0 mm CLR
08:30 16.3 °C 13 °C 1025.6 hPa Calm     81% 0 mm CLR
08:45 15.8 °C 13.5 °C 1025.6 hPa Calm     86% 0 mm CLR
09:00 16.2 °C 13.5 °C 1026 hPa Calm     84% 0 mm CLR
09:15 16.8 °C 14.1 °C 1026 hPa Calm     84% 0 mm CLR
09:30 17.3 °C 14.4 °C 1026 hPa Calm     83% 0 mm CLR
09:45 17.9 °C 14.8 °C 1026 hPa Calm     82% 0 mm CLR
10:00 18.5 °C 15.2 °C 1026 hPa Calm     81% 0 mm CLR
10:15 19.4 °C 14.8 °C 1026.3 hPa Calm     75% 0 mm CLR
10:30 19.8 °C 14.8 °C 1026.3 hPa Calm   1.6 km/h 73% 0 mm CLR
10:45 20.3 °C 14.4 °C 1026.3 hPa Calm     69% 0 mm CLR
11:00 20.8 °C 14.9 °C 1026.3 hPa Calm     69% 0 mm CLR
11:15 21.3 °C 14.2 °C 1026.6 hPa Calm   1.6 km/h 64% 0 mm CLR
11:30 21.9 °C 14.3 °C 1026.6 hPa Calm   1.6 km/h 62% 0 mm CLR
11:45 22.3 °C 13.9 °C 1026.6 hPa Calm   1.6 km/h 59% 0 mm CLR
12:00 22.9 °C 14.2 °C 1026.6 hPa Calm   1.6 km/h 58% 0 mm CLR
12:15 22.7 °C 14 °C 1026.3 hPa Calm   1.6 km/h 58% 0 mm CLR
12:30 22.7 °C 13.8 °C 1026.3 hPa Calm     57% 0 mm CLR
12:45 22.7 °C 14.2 °C 1026 hPa Calm     59% 0 mm CLR
13:00 22.8 °C 14.6 °C 1026 hPa Calm     60% 0 mm CLR
13:15 23.1 °C 14.6 °C 1025.6 hPa Calm   3.2 km/h 59% 0 mm CLR
13:30 23.7 °C 15.4 °C 1025.6 hPa Calm   3.2 km/h 60% 0 mm CLR
13:45 25.4 °C 14.9 °C 1025.3 hPa NW 1.6 km/h 3.2 km/h 52% 0 mm CLR
14:00 26.9 °C 14.7 °C 1024.9 hPa Calm   3.2 km/h 47% 0 mm CLR
14:15 27.7 °C 13.6 °C 1024.9 hPa Calm   3.2 km/h 42% 0 mm CLR
14:30 27.6 °C 12.8 °C 1024.6 hPa Calm   3.2 km/h 40% 0 mm CLR
14:45 27.3 °C 13.3 °C 1024.3 hPa Calm   3.2 km/h 42% 0 mm CLR
15:00 27.2 °C 12.8 °C 1024.3 hPa Calm   8 km/h 41% 0 mm CLR
15:15 27.1 °C 11.6 °C 1023.9 hPa Calm   3.2 km/h 38% 0 mm CLR
15:30 26.6 °C 13 °C 1023.6 hPa Calm   8 km/h 43% 0 mm CLR
15:45 26.9 °C 12.2 °C 1023.6 hPa Calm   4.8 km/h 40% 0 mm CLR
16:00 27.1 °C 11.5 °C 1023.2 hPa Calm   4.8 km/h 38% 0 mm CLR
16:15 26.7 °C 12.3 °C 1023.2 hPa Calm   1.6 km/h 41% 0 mm CLR
16:30 26.8 °C 12.5 °C 1022.9 hPa Calm   1.6 km/h 41% 0 mm CLR
16:45 26.9 °C 11 °C 1022.9 hPa North 1.6 km/h 3.2 km/h 37% 0 mm CLR
17:00 27.2 °C 10.8 °C 1022.9 hPa NNW 1.6 km/h 4.8 km/h 36% 0 mm CLR
17:15 27.1 °C 11.6 °C 1022.9 hPa Calm   1.6 km/h 38% 0 mm CLR
17:30 27.1 °C 10.7 °C 1022.9 hPa NNW 1.6 km/h 4.8 km/h 36% 0 mm CLR
17:45 26.9 °C 11.4 °C 1022.9 hPa Calm   1.6 km/h 38% 0 mm CLR
18:00 26.7 °C 12 °C 1022.9 hPa Calm   1.6 km/h 40% 0 mm CLR
18:15 26.2 °C 11.9 °C 1022.9 hPa Calm   1.6 km/h 41% 0 mm CLR
18:30 25.8 °C 11.9 °C 1022.9 hPa Calm   3.2 km/h 42% 0 mm CLR
18:45 25.7 °C 11.4 °C 1022.9 hPa Calm   1.6 km/h 41% 0 mm CLR
19:00 25.2 °C 11.4 °C 1022.9 hPa Calm     42% 0 mm CLR
19:15 24.9 °C 11.4 °C 1022.9 hPa Calm     43% 0 mm CLR
19:30 24.4 °C 11.7 °C 1022.9 hPa Calm     45% 0 mm CLR
19:45 24 °C 12 °C 1022.9 hPa Calm     47% 0 mm CLR
20:00 23.5 °C 12.2 °C 1023.2 hPa Calm     49% 0 mm CLR
20:15 22.9 °C 12 °C 1023.2 hPa Calm     50% 0 mm CLR
20:30 22.4 °C 12.1 °C 1023.6 hPa Calm     52% 0 mm CLR
20:45 21.9 °C 12.2 °C 1023.6 hPa Calm     54% 0 mm CLR
21:00 21.4 °C 12.3 °C 1023.6 hPa Calm     56% 0 mm CLR
21:15 21 °C 12.1 °C 1023.9 hPa Calm     57% 0 mm CLR
21:30 20.7 °C 12.4 °C 1023.9 hPa Calm     59% 0 mm CLR
21:45 20.2 °C 12.4 °C 1024.3 hPa Calm     61% 0 mm CLR
22:00 19.8 °C 12.6 °C 1024.3 hPa Calm     63% 0 mm CLR
22:15 19.3 °C 12.6 °C 1024.3 hPa Calm     65% 0 mm CLR
22:30 19.1 °C 12.8 °C 1024.3 hPa Calm     67% 0 mm CLR
22:45 18.8 °C 12.8 °C 1024.3 hPa Calm     68% 0 mm CLR
23:00 18.6 °C 13 °C 1024.3 hPa Calm     70% 0 mm CLR
23:15 18.3 °C 12.8 °C 1024.6 hPa Calm     70% 0 mm CLR
23:30 17.9 °C 12.8 °C 1024.6 hPa Calm     72% 0 mm CLR
23:45 17.6 °C 12.9 °C 1024.6 hPa Calm     74% 0 mm CLR
Piedmont Bend
Compliments of Weather Underground - 4 mb